Argonia, Kansas
Current Conditions -  °F | °C
As of 7:53 PM on Saturday 22 Nov 2014 (Local Time) from KICT Reporting Station
Overcast Overcast  
Wind Chill: 13°   Ceiling: 800
Heat Index: 13°   Visibility: 10mi
Dew Point: 11°   Wind: 17mph
Humidity: 87%   Direction: 170°S
Pressure: 29.71"   Gusts: NA
Location:  37.27°N, 97.77°W
Report Text: KICT 230153Z 17015KT 10SM OVC008 13/11 A2971 RMK AO2 CIG 007V012 SLP059 T01330111
Loading
Personal Weather Stations






























Interactive Weather Map New forecast layout! Learn more

10-Day Weather Forecast

Advertisements
Track Severe Weather on mobile